createdAt,value
2019-03-29T00:04:00.269Z,9.60
2019-03-29T00:09:06.174Z,9.60
2019-03-29T00:14:09.231Z,9.60
2019-03-29T00:19:12.283Z,9.50
2019-03-29T00:24:15.323Z,9.60
2019-03-29T00:29:18.637Z,9.60
2019-03-29T00:34:21.847Z,9.70
2019-03-29T00:39:24.863Z,9.70
2019-03-29T00:44:27.962Z,9.60
2019-03-29T00:49:32.879Z,9.60
2019-03-29T00:54:36.223Z,9.60
2019-03-29T00:59:39.363Z,9.60
2019-03-29T01:04:43.490Z,9.70
2019-03-29T01:09:46.586Z,9.60
2019-03-29T01:14:49.637Z,9.60
2019-03-29T01:19:52.693Z,9.50
2019-03-29T01:24:55.742Z,9.50
2019-03-29T01:29:58.835Z,9.50
2019-03-29T01:35:03.782Z,9.50
2019-03-29T01:40:08.916Z,9.60
2019-03-29T01:45:12.779Z,9.50
2019-03-29T01:50:16.270Z,9.50
2019-03-29T01:55:19.307Z,9.40
2019-03-29T02:00:30.311Z,9.30
2019-03-29T02:05:33.458Z,9.30
2019-03-29T02:10:36.560Z,9.20
2019-03-29T02:15:39.633Z,9.20
2019-03-29T02:20:42.684Z,9.20
2019-03-29T02:25:45.748Z,9.20
2019-03-29T02:30:49.009Z,9.30
2019-03-29T02:35:52.077Z,9.20
2019-03-29T02:40:55.476Z,9.10
2019-03-29T02:45:58.829Z,9.00
2019-03-29T02:51:02.043Z,9.00
2019-03-29T02:56:05.254Z,9.00
2019-03-29T03:01:10.263Z,9.00
2019-03-29T03:06:14.852Z,9.10
2019-03-29T03:11:17.845Z,9.00
2019-03-29T03:16:21.060Z,9.00
2019-03-29T03:21:24.259Z,9.00
2019-03-29T03:26:27.292Z,9.00
2019-03-29T03:31:30.800Z,9.00
2019-03-29T03:36:34.010Z,8.90
2019-03-29T03:41:37.450Z,9.10
2019-03-29T03:46:40.739Z,9.10
2019-03-29T03:51:43.813Z,9.10
2019-03-29T03:56:50.455Z,9.10
2019-03-29T04:01:53.573Z,9.10
2019-03-29T04:06:57.755Z,9.20
2019-03-29T04:12:01.094Z,9.10
2019-03-29T04:17:04.365Z,8.90
2019-03-29T04:22:07.817Z,8.90
2019-03-29T04:27:11.029Z,8.70
2019-03-29T04:32:14.097Z,8.50
2019-03-29T04:37:17.166Z,8.20
2019-03-29T04:42:20.224Z,7.90
2019-03-29T04:47:23.276Z,7.60
2019-03-29T04:52:26.336Z,7.20
2019-03-29T04:57:29.389Z,6.90
2019-03-29T05:02:32.461Z,6.70
2019-03-29T05:07:37.047Z,6.50
2019-03-29T05:12:42.092Z,6.30
2019-03-29T05:17:45.080Z,6.10
2019-03-29T05:22:48.186Z,5.90
2019-03-29T05:27:51.211Z,5.80
2019-03-29T05:32:54.606Z,5.60
2019-03-29T05:37:57.818Z,5.60
2019-03-29T05:43:01.025Z,5.50
2019-03-29T05:48:04.235Z,5.50
2019-03-29T05:53:09.143Z,5.60
2019-03-29T05:58:12.121Z,5.70
2019-03-29T06:03:15.164Z,5.90
2019-03-29T06:08:18.262Z,6.10
2019-03-29T06:13:21.516Z,6.30
2019-03-29T06:18:24.594Z,6.40
2019-03-29T06:23:27.652Z,6.50
2019-03-29T06:28:30.729Z,6.60
2019-03-29T06:33:33.872Z,6.70
2019-03-29T06:38:38.624Z,6.80
2019-03-29T06:43:41.680Z,7.00
2019-03-29T06:48:44.912Z,7.10
2019-03-29T06:53:48.122Z,7.20
2019-03-29T06:58:51.331Z,7.40
2019-03-29T07:03:54.335Z,7.60
2019-03-29T07:08:57.447Z,7.70
2019-03-29T07:14:00.468Z,7.80
2019-03-29T07:19:05.084Z,8.00
2019-03-29T07:24:08.614Z,8.20
2019-03-29T07:29:11.700Z,8.40
2019-03-29T07:34:14.848Z,8.60
2019-03-29T07:39:17.933Z,8.80
2019-03-29T07:49:58.142Z,9.30
2019-03-29T07:55:01.145Z,9.60
2019-03-29T08:00:05.313Z,9.80
2019-03-29T08:05:09.002Z,10.00
2019-03-29T08:10:24.012Z,10.30
2019-03-29T08:15:17.266Z,10.50
2019-03-29T08:25:25.184Z,11.00
2019-03-29T08:30:28.236Z,11.10
2019-03-29T08:35:31.294Z,11.30
2019-03-29T08:40:34.344Z,11.50
2019-03-29T08:45:37.474Z,11.70
2019-03-29T08:50:40.793Z,11.80
2019-03-29T08:55:45.930Z,11.70
2019-03-29T09:00:48.959Z,11.90
2019-03-29T09:05:52.132Z,12.00
2019-03-29T09:10:55.248Z,12.10
2019-03-29T09:16:00.238Z,12.10
2019-03-29T09:21:03.324Z,12.20
2019-03-29T09:26:06.380Z,12.40
2019-03-29T09:31:10.030Z,12.30
2019-03-29T09:36:13.546Z,12.50
2019-03-29T09:41:16.562Z,12.70
2019-03-29T09:46:19.619Z,12.80
2019-03-29T09:51:22.869Z,12.90
2019-03-29T09:56:37.861Z,13.00
2019-03-29T10:01:31.219Z,13.00
2019-03-29T10:06:34.372Z,12.90
2019-03-29T10:11:37.438Z,13.00
2019-03-29T10:16:40.764Z,13.40
2019-03-29T10:21:43.813Z,13.50
2019-03-29T10:26:46.868Z,13.50
2019-03-29T10:31:50.238Z,13.70
2019-03-29T10:36:53.345Z,13.90
2019-03-29T10:41:56.509Z,14.20
2019-03-29T10:46:59.720Z,14.40
2019-03-29T10:52:02.732Z,14.30
2019-03-29T10:57:05.833Z,14.20
2019-03-29T11:02:08.872Z,14.50
2019-03-29T11:07:11.946Z,14.70
2019-03-29T11:12:15.157Z,15.10
2019-03-29T11:17:18.153Z,15.00
2019-03-29T11:22:21.217Z,15.10
2019-03-29T11:27:24.274Z,14.80
2019-03-29T11:32:27.333Z,14.90
2019-03-29T11:37:30.435Z,14.80
2019-03-29T11:42:33.497Z,14.80
2019-03-29T11:47:36.545Z,14.80
2019-03-29T11:52:39.631Z,14.80
2019-03-29T11:57:42.821Z,14.80
2019-03-29T12:02:45.857Z,15.10
2019-03-29T12:07:48.900Z,15.00
2019-03-29T12:12:52.146Z,15.00
2019-03-29T12:17:55.216Z,15.30
2019-03-29T12:22:58.289Z,15.20
2019-03-29T12:28:03.102Z,15.30
2019-03-29T12:33:06.523Z,15.60
2019-03-29T12:38:09.737Z,15.40
2019-03-29T12:43:12.918Z,15.60
2019-03-29T12:48:16.278Z,15.40
2019-03-29T12:53:19.362Z,15.50
2019-03-29T12:58:22.496Z,15.60
2019-03-29T13:03:25.547Z,15.60
2019-03-29T13:08:28.606Z,15.80
2019-03-29T13:13:31.897Z,16.10
2019-03-29T13:18:35.016Z,16.30
2019-03-29T13:23:38.318Z,16.30
2019-03-29T13:28:41.530Z,16.70
2019-03-29T13:33:44.586Z,16.30
2019-03-29T13:38:47.641Z,15.80
2019-03-29T13:43:50.851Z,16.00
2019-03-29T13:48:54.062Z,16.00
2019-03-29T13:53:57.273Z,16.10
2019-03-29T13:59:02.193Z,16.10
2019-03-29T14:04:05.538Z,16.20
2019-03-29T14:09:09.621Z,16.00
2019-03-29T14:14:12.881Z,16.20
2019-03-29T14:19:17.579Z,16.10
2019-03-29T14:24:20.836Z,16.10
2019-03-29T14:29:24.053Z,16.40
2019-03-29T14:34:27.113Z,16.50
2019-03-29T14:39:30.163Z,16.40
2019-03-29T14:44:33.218Z,16.70
2019-03-29T14:49:36.580Z,16.90
2019-03-29T14:54:39.697Z,19.30
2019-03-29T14:59:43.773Z,20.30
2019-03-29T15:04:46.847Z,20.80
2019-03-29T15:09:51.183Z,20.80
2019-03-29T15:15:05.474Z,21.20
2019-03-29T15:19:59.137Z,21.10
2019-03-29T15:25:03.801Z,19.80
2019-03-29T15:30:07.304Z,19.40
2019-03-29T15:35:10.376Z,19.40
2019-03-29T15:40:15.275Z,19.90
2019-03-29T15:45:20.793Z,19.50
2019-03-29T15:50:23.174Z,19.60
2019-03-29T15:55:26.239Z,19.40
2019-03-29T16:00:29.294Z,19.60
2019-03-29T16:05:32.547Z,19.00
2019-03-29T16:10:35.603Z,19.10
2019-03-29T16:15:38.667Z,18.30
2019-03-29T16:20:41.728Z,17.50
2019-03-29T16:25:44.811Z,17.30
2019-03-29T16:30:47.987Z,16.60
2019-03-29T16:35:51.076Z,16.90
2019-03-29T16:40:54.169Z,16.40
2019-03-29T16:45:57.791Z,16.20
2019-03-29T16:51:01.002Z,15.90
2019-03-29T16:56:04.076Z,15.80
2019-03-29T17:01:07.432Z,15.50
2019-03-29T17:06:10.495Z,15.40
2019-03-29T17:11:13.845Z,14.80
2019-03-29T17:16:29.452Z,14.30
2019-03-29T17:21:22.550Z,14.00
2019-03-29T17:26:25.611Z,13.70
2019-03-29T17:31:28.668Z,13.30
2019-03-29T17:36:32.045Z,13.00
2019-03-29T17:41:35.157Z,12.70
2019-03-29T17:46:38.240Z,12.40
2019-03-29T17:51:41.694Z,12.20
2019-03-29T17:56:44.793Z,12.00
2019-03-29T18:01:47.943Z,11.80
2019-03-29T18:06:51.035Z,11.50
2019-03-29T18:11:54.221Z,11.20
2019-03-29T18:16:57.281Z,11.00
2019-03-29T18:22:00.633Z,10.80
2019-03-29T18:27:03.918Z,10.70
2019-03-29T18:32:07.360Z,10.50
2019-03-29T18:37:12.561Z,10.50
2019-03-29T18:42:15.642Z,10.40
2019-03-29T18:47:18.834Z,10.30
2019-03-29T18:52:22.044Z,10.30
2019-03-29T18:57:27.035Z,10.30
2019-03-29T19:02:30.309Z,10.30
2019-03-29T19:07:35.354Z,10.00
2019-03-29T19:12:38.604Z,9.90
2019-03-29T19:17:41.785Z,9.80
2019-03-29T19:22:44.858Z,9.70
2019-03-29T19:27:49.853Z,9.50
2019-03-29T19:32:52.950Z,9.50
2019-03-29T19:37:56.161Z,9.60
2019-03-29T19:42:59.207Z,9.60
2019-03-29T19:48:02.581Z,9.40
2019-03-29T19:53:05.814Z,9.20
2019-03-29T19:58:10.836Z,9.10
2019-03-29T20:03:13.805Z,8.90
2019-03-29T20:08:18.680Z,8.80
2019-03-29T20:13:21.734Z,8.60
2019-03-29T20:18:24.849Z,8.60
2019-03-29T20:23:27.905Z,8.50
2019-03-29T20:28:32.172Z,8.50
2019-03-29T20:33:35.247Z,8.50
2019-03-29T20:38:38.304Z,8.50
2019-03-29T20:43:41.366Z,8.40
2019-03-29T20:48:46.304Z,8.30
2019-03-29T20:53:49.538Z,8.30
2019-03-29T20:58:52.747Z,8.20
2019-03-29T21:03:57.703Z,8.10
2019-03-29T21:09:00.652Z,7.90
2019-03-29T21:14:04.064Z,7.80
2019-03-29T21:19:07.483Z,7.70
2019-03-29T21:24:10.552Z,7.60
2019-03-29T21:29:13.680Z,7.60
2019-03-29T21:34:16.747Z,7.60
2019-03-29T21:39:19.967Z,7.60
2019-03-29T21:44:22.999Z,7.50
2019-03-29T21:49:26.123Z,7.50
2019-03-29T21:54:29.179Z,7.40
2019-03-29T21:59:34.153Z,7.40
2019-03-29T22:04:37.191Z,7.30
2019-03-29T22:09:40.261Z,7.20
2019-03-29T22:14:43.359Z,7.10
2019-03-29T22:19:46.573Z,7.00
2019-03-29T22:24:49.785Z,6.90
2019-03-29T22:29:52.992Z,6.80
2019-03-29T22:34:57.967Z,6.70
2019-03-29T22:40:01.403Z,6.70
2019-03-29T22:45:07.089Z,6.60
2019-03-29T22:50:11.364Z,6.60
2019-03-29T22:55:15.589Z,6.60
2019-03-29T23:00:25.375Z,6.50
2019-03-29T23:05:30.359Z,6.30
2019-03-29T23:10:33.625Z,6.20
2019-03-29T23:15:36.838Z,6.20
2019-03-29T23:20:40.090Z,6.10
2019-03-29T23:25:46.772Z,6.10
2019-03-29T23:30:49.952Z,6.00
2019-03-29T23:35:53.167Z,5.90
2019-03-29T23:40:56.594Z,5.90
2019-03-29T23:45:59.683Z,5.90
2019-03-29T23:51:04.626Z,6.00
2019-03-29T23:56:07.719Z,6.00
